Time;durP1;ratioP1;P1;durP2;ratioP2;P2;SDS_P1;SDS_P2;PMS_P1;PMS_P2;Temp;Humidity;BMP_temperature;BMP_pressure;BME280_temperature;BME280_humidity;BME280_pressure;Samples;Min_cycle;Max_cycle;Signal;HPM_P1;HPM_P2
2023/05/22 00:00:15;;;;;;;13.47;12.10;;;16.90;99.90;;;;;;4940083;29;20519;-72
2023/05/22 00:02:42;;;;;;;13.18;11.88;;;16.70;99.90;;;;;;4944784;28;20696;-71
2023/05/22 00:05:10;;;;;;;13.05;11.00;;;16.80;99.90;;;;;;4944243;28;20200;-71
2023/05/22 00:07:36;;;;;;;13.35;11.95;;;16.70;99.90;;;;;;4929961;29;20197;-72
2023/05/22 00:10:02;;;;;;;14.35;12.85;;;16.60;99.90;;;;;;4932329;29;20250;-72
2023/05/22 00:12:28;;;;;;;12.60;11.50;;;16.60;99.90;;;;;;4947059;29;20216;-72
2023/05/22 00:14:53;;;;;;;12.93;11.53;;;16.50;99.90;;;;;;4928685;29;20259;-72
2023/05/22 00:17:19;;;;;;;13.30;12.00;;;16.50;99.90;;;;;;4931278;29;20189;-72
2023/05/22 00:19:45;;;;;;;12.80;11.50;;;16.80;99.90;;;;;;4928836;29;20189;-72
2023/05/22 00:22:11;;;;;;;12.67;11.57;;;16.70;99.90;;;;;;4943682;28;20735;-72
2023/05/22 00:24:37;;;;;;;12.93;11.73;;;16.50;99.90;;;;;;4930732;29;20196;-72
2023/05/22 00:27:03;;;;;;;12.65;11.48;;;16.60;99.90;;;;;;4930300;29;20531;-72
2023/05/22 00:29:30;;;;;;;13.38;12.10;;;16.50;99.90;;;;;;4931541;28;20197;-72
2023/05/22 00:31:55;;;;;;;12.13;11.00;;;16.30;99.90;;;;;;4934358;29;20220;-72
2023/05/22 00:34:21;;;;;;;14.20;12.90;;;16.50;99.90;;;;;;4948778;29;20216;-74
2023/05/22 00:36:46;;;;;;;13.07;11.70;;;16.40;99.90;;;;;;4931678;29;20212;-72
2023/05/22 00:39:12;;;;;;;12.63;11.00;;;16.40;99.90;;;;;;4932279;29;20181;-72
2023/05/22 00:41:37;;;;;;;12.93;11.67;;;16.50;99.90;;;;;;4946507;28;20284;-72
2023/05/22 00:44:03;;;;;;;13.20;11.90;;;16.30;99.90;;;;;;4928765;29;20190;-72
2023/05/22 00:46:29;;;;;;;12.83;11.63;;;16.30;99.90;;;;;;4931869;29;20200;-72
2023/05/22 00:48:55;;;;;;;13.43;12.10;;;16.20;99.90;;;;;;4950915;28;20973;-73
2023/05/22 00:51:22;;;;;;;12.83;11.63;;;16.20;99.90;;;;;;4930605;29;20605;-74
2023/05/22 00:53:49;;;;;;;13.02;11.90;;;16.00;99.90;;;;;;4929806;29;20215;-75
2023/05/22 00:56:16;;;;;;;12.75;11.45;;;16.10;99.90;;;;;;4933737;29;20655;-72
2023/05/22 00:58:45;;;;;;;14.13;12.68;;;16.10;99.90;;;;;;4934421;29;20193;-73
2023/05/22 01:01:11;;;;;;;14.13;12.82;;;15.80;99.90;;;;;;4946459;28;20292;-76
2023/05/22 01:03:43;;;;;;;14.25;12.95;;;16.20;99.90;;;;;;4945624;29;20191;-75
2023/05/22 01:06:14;;;;;;;13.48;12.15;;;16.00;99.90;;;;;;4931581;28;20195;-77
2023/05/22 01:08:40;;;;;;;14.95;12.93;;;15.80;99.90;;;;;;4950266;29;20191;-73
2023/05/22 01:11:18;;;;;;;13.45;12.15;;;15.90;99.90;;;;;;4948000;29;20205;-74
2023/05/22 01:14:09;;;;;;;13.90;12.57;;;16.20;99.90;;;;;;4934041;28;20236;-74
2023/05/22 01:16:53;;;;;;;13.20;12.00;;;15.90;99.90;;;;;;4932634;29;20189;-74
2023/05/22 01:19:46;;;;;;;13.82;12.52;;;15.80;99.90;;;;;;4951086;29;20268;-73
2023/05/22 01:22:57;;;;;;;13.73;12.45;;;15.90;99.90;;;;;;4947289;28;20208;-75
2023/05/22 01:25:44;;;;;;;13.07;11.80;;;15.90;99.90;;;;;;4932727;29;20281;-79
2023/05/22 01:28:38;;;;;;;14.98;12.35;;;15.90;99.90;;;;;;4947347;29;20195;-75
2023/05/22 01:31:16;;;;;;;14.63;12.52;;;15.90;99.90;;;;;;4945866;28;20205;-75
2023/05/22 01:33:47;;;;;;;12.52;11.32;;;15.70;99.90;;;;;;4945506;29;20776;-75
2023/05/22 01:36:21;;;;;;;13.48;11.88;;;15.70;99.90;;;;;;4948840;28;20241;-77
2023/05/22 01:38:48;;;;;;;12.23;11.02;;;15.50;99.90;;;;;;4932262;29;20188;-75
2023/05/22 01:41:15;;;;;;;13.55;12.30;;;15.60;99.90;;;;;;4932204;29;20682;-75
2023/05/22 01:43:41;;;;;;;15.20;13.77;;;15.50;99.90;;;;;;4949846;29;20192;-74
2023/05/22 01:46:07;;;;;;;14.20;12.82;;;15.70;99.90;;;;;;4945662;28;20742;-74
2023/05/22 01:48:33;;;;;;;12.90;11.80;;;15.60;99.90;;;;;;4933313;29;20279;-73
2023/05/22 01:51:13;;;;;;;13.30;11.93;;;15.50;99.90;;;;;;4949342;28;20464;-74
2023/05/22 01:53:47;;;;;;;13.73;12.30;;;15.50;99.90;;;;;;4949579;29;20219;-74
2023/05/22 01:56:18;;;;;;;14.50;12.75;;;15.40;99.90;;;;;;4950522;29;20181;-74
2023/05/22 01:59:00;;;;;;;13.95;12.65;;;15.80;99.90;;;;;;4947755;28;20261;-73
2023/05/22 02:01:29;;;;;;;13.30;12.10;;;15.40;99.90;;;;;;4948085;28;20631;-74
2023/05/22 02:03:56;;;;;;;14.02;12.57;;;15.50;99.90;;;;;;4930621;29;20709;-73
2023/05/22 02:06:24;;;;;;;13.20;11.90;;;15.50;99.90;;;;;;4930951;29;20217;-73
2023/05/22 02:08:52;;;;;;;13.52;12.10;;;15.30;99.90;;;;;;4929375;29;20275;-74
2023/05/22 02:11:20;;;;;;;13.65;12.32;;;15.40;99.90;;;;;;4933702;29;20205;-74
2023/05/22 02:13:46;;;;;;;13.68;12.38;;;15.40;99.90;;;;;;4950613;28;20225;-74
2023/05/22 02:16:12;;;;;;;14.23;12.45;;;15.40;99.90;;;;;;4928535;28;20181;-74
2023/05/22 02:18:40;;;;;;;15.68;14.07;;;15.30;99.90;;;;;;4947619;29;20200;-74
2023/05/22 02:21:07;;;;;;;13.98;12.57;;;15.20;99.90;;;;;;4946924;28;20236;-74
2023/05/22 02:23:33;;;;;;;14.60;13.05;;;15.50;99.90;;;;;;4931505;29;20197;-74
2023/05/22 02:25:59;;;;;;;12.98;11.68;;;15.50;99.90;;;;;;4932321;29;20190;-74
2023/05/22 02:28:25;;;;;;;14.50;13.00;;;15.10;99.90;;;;;;4948490;29;20544;-73
2023/05/22 02:30:51;;;;;;;15.05;13.55;;;15.20;99.90;;;;;;4946044;28;20472;-73
2023/05/22 02:33:17;;;;;;;14.83;13.37;;;15.10;99.90;;;;;;4931097;29;20195;-73
2023/05/22 02:35:43;;;;;;;12.95;11.75;;;15.30;99.90;;;;;;4932254;29;20181;-74
2023/05/22 02:38:09;;;;;;;13.25;12.02;;;15.20;99.90;;;;;;4946100;28;20184;-73
2023/05/22 02:40:35;;;;;;;13.90;12.60;;;15.30;99.90;;;;;;4927549;28;20564;-74
2023/05/22 02:43:01;;;;;;;14.73;13.17;;;15.40;99.90;;;;;;4949890;29;20440;-74
2023/05/22 02:45:27;;;;;;;14.70;12.37;;;15.50;99.90;;;;;;4941049;28;20591;-74
2023/05/22 02:47:52;;;;;;;14.77;13.35;;;15.40;99.90;;;;;;4945781;29;20203;-73
2023/05/22 02:50:18;;;;;;;14.73;12.73;;;;;;;;;;4945651;28;20750;-74
2023/05/22 02:52:44;;;;;;;14.38;12.88;;;15.40;99.90;;;;;;4930400;29;20535;-77
2023/05/22 02:55:10;;;;;;;14.37;13.03;;;15.20;99.90;;;;;;4931483;29;20240;-75
2023/05/22 02:57:36;;;;;;;14.10;12.70;;;15.20;99.90;;;;;;4931730;29;20189;-77
2023/05/22 03:00:05;;;;;;;15.17;13.77;;;15.40;99.90;;;;;;4929843;29;20192;-74
2023/05/22 03:02:31;;;;;;;13.90;12.50;;;15.60;99.90;;;;;;4929304;29;20460;-76
2023/05/22 03:04:58;;;;;;;14.10;12.60;;;15.30;99.90;;;;;;4948965;29;20246;-76
2023/05/22 03:07:25;;;;;;;14.68;13.27;;;15.20;99.90;;;;;;4927880;29;20488;-75
2023/05/22 03:09:54;;;;;;;14.38;13.13;;;15.60;99.90;;;;;;4930383;29;20197;-74
2023/05/22 03:12:20;;;;;;;14.27;12.88;;;15.30;99.90;;;;;;4930946;29;20212;-76
2023/05/22 03:14:45;;;;;;;14.63;13.13;;;15.50;99.90;;;;;;4949179;29;20215;-74
2023/05/22 03:17:11;;;;;;;13.47;12.07;;;15.50;99.90;;;;;;4930610;29;20224;-74
2023/05/22 03:19:37;;;;;;;15.27;13.77;;;15.70;99.90;;;;;;4932257;29;20237;-74
2023/05/22 03:22:02;;;;;;;13.60;12.30;;;15.50;99.90;;;;;;4931561;29;20255;-74
2023/05/22 03:24:28;;;;;;;14.17;12.67;;;15.50;99.90;;;;;;4949524;29;20682;-74
2023/05/22 03:26:54;;;;;;;13.53;12.43;;;15.50;99.90;;;;;;4948971;29;20215;-74
2023/05/22 03:29:20;;;;;;;14.63;13.30;;;15.40;99.90;;;;;;4945899;29;20749;-74
2023/05/22 03:31:46;;;;;;;14.20;12.90;;;15.50;99.90;;;;;;4930384;29;20247;-75
2023/05/22 03:34:11;;;;;;;13.97;12.53;;;15.30;99.90;;;;;;4949943;29;20240;-74
2023/05/22 03:36:37;;;;;;;14.50;13.20;;;15.30;99.90;;;;;;4949180;29;20181;-74
2023/05/22 03:39:04;;;;;;;14.80;13.30;;;15.40;99.90;;;;;;4949853;29;20276;-74
2023/05/22 03:41:30;;;;;;;14.05;12.65;;;15.40;99.90;;;;;;4931586;29;20201;-75
2023/05/22 03:43:56;;;;;;;13.15;11.85;;;15.60;99.90;;;;;;4949288;29;20213;-74
2023/05/22 03:46:22;;;;;;;13.48;12.27;;;15.70;99.90;;;;;;4929056;29;20204;-78
2023/05/22 03:48:47;;;;;;;14.53;13.13;;;15.90;99.90;;;;;;4947757;29;20197;-74
2023/05/22 03:51:13;;;;;;;13.70;12.40;;;15.80;99.90;;;;;;4930751;28;20224;-74
2023/05/22 03:53:39;;;;;;;15.10;13.70;;;15.80;99.90;;;;;;4925762;29;20208;-76
2023/05/22 03:56:05;;;;;;;14.20;12.83;;;15.80;99.90;;;;;;4948055;29;20548;-75
2023/05/22 03:58:30;;;;;;;18.03;13.43;;;16.10;99.90;;;;;;4942510;29;20321;-73
2023/05/22 04:00:59;;;;;;;14.60;13.30;;;15.80;99.90;;;;;;4932707;28;20473;-74
2023/05/22 04:03:26;;;;;;;13.07;11.73;;;15.90;99.90;;;;;;4947500;28;20795;-76
2023/05/22 04:05:52;;;;;;;15.18;12.85;;;15.70;99.90;;;;;;4933078;29;20199;-75
2023/05/22 04:08:18;;;;;;;14.40;13.00;;;15.90;99.90;;;;;;4932940;29;20209;-76
2023/05/22 04:10:45;;;;;;;16.17;14.47;;;15.90;99.90;;;;;;4946259;28;20288;-73
2023/05/22 04:13:15;;;;;;;14.00;12.60;;;15.80;99.90;;;;;;4946780;29;20181;-74
2023/05/22 04:15:44;;;;;;;13.63;12.45;;;16.00;99.90;;;;;;4928198;29;20189;-72
2023/05/22 04:18:10;;;;;;;15.82;14.30;;;15.90;99.90;;;;;;4936043;28;20177;-73
2023/05/22 04:20:39;;;;;;;15.20;13.80;;;16.00;99.90;;;;;;4934313;28;20557;-73
2023/05/22 04:23:06;;;;;;;15.65;14.13;;;16.00;99.90;;;;;;4932936;29;20220;-72
2023/05/22 04:25:33;;;;;;;14.27;12.98;;;15.80;99.90;;;;;;4949309;28;20555;-72
2023/05/22 04:28:01;;;;;;;13.95;12.65;;;15.90;99.90;;;;;;4949714;28;20197;-72
2023/05/22 04:30:27;;;;;;;13.45;12.25;;;16.00;99.90;;;;;;4934013;28;21153;-72
2023/05/22 04:32:53;;;;;;;15.07;13.57;;;16.00;99.90;;;;;;4947138;28;20303;-72
2023/05/22 04:35:18;;;;;;;14.27;12.77;;;16.00;99.90;;;;;;4950966;29;20221;-73
2023/05/22 04:37:44;;;;;;;14.93;13.43;;;16.20;99.90;;;;;;4946967;29;20193;-77
2023/05/22 04:40:11;;;;;;;14.43;13.00;;;15.90;99.90;;;;;;4948876;28;20681;-74
2023/05/22 04:42:39;;;;;;;15.45;13.90;;;16.20;99.90;;;;;;4951646;28;20475;-74
2023/05/22 04:45:06;;;;;;;14.73;13.40;;;16.00;99.90;;;;;;4931892;29;20186;-75
2023/05/22 04:47:31;;;;;;;15.45;13.75;;;16.10;99.90;;;;;;4931434;29;20600;-74
2023/05/22 04:49:58;;;;;;;14.87;13.27;;;16.30;99.90;;;;;;4933325;28;20281;-73
2023/05/22 04:52:25;;;;;;;14.65;13.10;;;16.10;99.90;;;;;;4928505;29;20204;-74
2023/05/22 04:54:51;;;;;;;13.88;12.65;;;16.40;99.90;;;;;;4947899;28;20634;-74
2023/05/22 04:57:17;;;;;;;16.52;14.85;;;16.40;99.90;;;;;;4949084;28;20216;-72
2023/05/22 04:59:44;;;;;;;15.43;13.88;;;16.60;99.90;;;;;;4951731;29;20192;-77
2023/05/22 05:02:10;;;;;;;14.27;12.98;;;16.80;99.90;;;;;;4933151;28;20227;-75
2023/05/22 05:04:36;;;;;;;14.83;13.33;;;16.80;99.90;;;;;;4930594;29;20220;-76
2023/05/22 05:07:02;;;;;;;15.00;13.60;;;16.80;99.90;;;;;;4947071;28;21171;-73
2023/05/22 05:09:28;;;;;;;15.88;13.73;;;16.60;99.90;;;;;;4947397;28;20198;-75
2023/05/22 05:11:54;;;;;;;14.40;13.00;;;16.90;99.90;;;;;;4946214;28;20750;-73
2023/05/22 05:14:20;;;;;;;15.33;13.20;;;16.90;99.90;;;;;;4947873;28;20217;-71
2023/05/22 05:16:46;;;;;;;14.50;13.10;;;17.10;99.90;;;;;;4930340;29;20462;-73
2023/05/22 05:19:12;;;;;;;15.38;13.88;;;16.50;99.90;;;;;;4933987;29;20857;-74
2023/05/22 05:21:38;;;;;;;15.00;13.50;;;17.20;99.90;;;;;;4930762;29;20287;-71
2023/05/22 05:24:05;;;;;;;14.63;13.30;;;17.10;99.90;;;;;;4947076;28;20294;-73
2023/05/22 05:26:31;;;;;;;16.10;14.40;;;17.30;99.90;;;;;;4945794;28;20322;-73
2023/05/22 05:28:57;;;;;;;15.63;14.07;;;17.30;99.90;;;;;;4940028;28;20622;-73
2023/05/22 05:31:23;;;;;;;14.90;13.40;;;17.40;99.90;;;;;;4946722;29;21063;-73
2023/05/22 05:33:49;;;;;;;15.47;14.00;;;17.50;99.90;;;;;;4932092;29;20233;-73
2023/05/22 05:36:15;;;;;;;14.82;13.32;;;18.10;99.90;;;;;;4930428;29;20197;-72
2023/05/22 05:38:41;;;;;;;15.05;13.48;;;18.40;99.90;;;;;;4948918;28;20189;-73
2023/05/22 05:41:06;;;;;;;16.10;14.40;;;18.00;99.90;;;;;;4950623;28;20213;-72
2023/05/22 05:43:32;;;;;;;14.90;13.50;;;18.20;99.90;;;;;;4945523;29;20448;-74
2023/05/22 05:45:58;;;;;;;15.30;13.80;;;18.30;99.90;;;;;;4930337;29;20212;-72
2023/05/22 05:48:24;;;;;;;16.10;14.40;;;18.50;99.90;;;;;;4931879;29;20189;-72
2023/05/22 05:50:49;;;;;;;17.67;14.93;;;18.60;99.90;;;;;;4931602;29;20900;-72
2023/05/22 05:53:15;;;;;;;15.73;13.43;;;18.60;99.90;;;;;;4929549;29;20194;-71
2023/05/22 05:55:40;;;;;;;14.13;12.83;;;18.60;99.90;;;;;;4948834;29;20251;-70
2023/05/22 05:58:06;;;;;;;14.90;13.43;;;18.90;99.90;;;;;;4949340;29;20259;-71
2023/05/22 06:00:32;;;;;;;15.37;13.97;;;19.00;99.90;;;;;;4949154;28;20185;-71
2023/05/22 06:02:58;;;;;;;15.67;14.07;;;19.30;99.90;;;;;;4932273;29;20184;-72
2023/05/22 06:05:23;;;;;;;16.30;14.63;;;19.20;99.90;;;;;;4932092;29;20252;-73
2023/05/22 06:07:49;;;;;;;16.93;15.27;;;19.30;99.90;;;;;;4932234;29;20446;-71
2023/05/22 06:10:15;;;;;;;18.83;16.80;;;18.90;99.90;;;;;;4949848;29;20704;-71
2023/05/22 06:12:41;;;;;;;16.00;14.03;;;19.50;99.90;;;;;;4931031;29;20209;-71
2023/05/22 06:15:07;;;;;;;14.70;13.23;;;19.50;99.90;;;;;;4929810;29;20491;-72
2023/05/22 06:17:34;;;;;;;15.10;13.48;;;19.40;99.90;;;;;;4931617;29;21223;-72
2023/05/22 06:20:00;;;;;;;14.13;12.73;;;20.10;99.90;;;;;;4931974;29;20187;-72
2023/05/22 06:22:26;;;;;;;14.93;13.53;;;20.00;99.90;;;;;;4948873;28;20205;-71
2023/05/22 06:24:55;;;;;;;15.13;12.37;;;20.20;99.90;;;;;;4932550;29;20474;-72
2023/05/22 06:27:21;;;;;;;15.00;13.55;;;20.30;99.90;;;;;;4947564;28;20449;-72
2023/05/22 06:29:47;;;;;;;20.13;18.23;;;20.40;99.90;;;;;;4933012;29;20196;-72
2023/05/22 06:32:13;;;;;;;19.23;15.10;;;20.50;99.90;;;;;;4931917;29;20263;-72
2023/05/22 06:34:39;;;;;;;15.17;13.80;;;20.60;99.90;;;;;;4948680;29;20216;-73
2023/05/22 06:37:05;;;;;;;15.50;14.00;;;20.40;99.90;;;;;;4948608;28;20585;-72
2023/05/22 06:39:31;;;;;;;15.88;14.43;;;21.00;99.90;;;;;;4949902;29;20180;-74
2023/05/22 06:41:56;;;;;;;20.07;18.27;;;20.90;99.90;;;;;;4948728;28;20220;-73
2023/05/22 06:44:24;;;;;;;15.80;14.20;;;20.90;99.90;;;;;;4931851;29;20201;-73
2023/05/22 06:46:50;;;;;;;15.80;14.20;;;21.00;99.90;;;;;;4927918;29;20189;-74
2023/05/22 06:49:16;;;;;;;14.80;13.30;;;21.50;99.90;;;;;;4933513;29;20554;-72
2023/05/22 06:51:42;;;;;;;14.97;13.37;;;21.90;99.90;;;;;;4947266;28;20563;-71
2023/05/22 06:54:11;;;;;;;15.73;14.20;;;21.90;99.90;;;;;;4947279;29;20472;-75
2023/05/22 06:56:37;;;;;;;15.10;13.70;;;22.20;99.90;;;;;;4931610;29;20238;-74
2023/05/22 06:59:03;;;;;;;14.57;13.27;;;22.10;99.50;;;;;;4930347;29;20472;-73
2023/05/22 07:01:29;;;;;;;16.03;14.47;;;22.10;99.60;;;;;;4930945;29;20821;-74
2023/05/22 07:04:00;;;;;;;17.80;14.27;;;22.30;99.60;;;;;;4931467;29;20523;-73
2023/05/22 07:06:26;;;;;;;15.10;13.60;;;22.60;99.00;;;;;;4929562;29;20568;-73
2023/05/22 07:08:52;;;;;;;15.07;13.67;;;23.80;97.40;;;;;;4944663;28;20509;-72
2023/05/22 07:11:18;;;;;;;15.90;13.37;;;23.90;96.60;;;;;;4929660;29;20469;-74
2023/05/22 07:13:44;;;;;;;15.27;13.83;;;23.80;96.30;;;;;;4947796;29;20485;-73
2023/05/22 07:16:09;;;;;;;13.87;12.67;;;24.50;95.30;;;;;;4926897;29;20572;-74
2023/05/22 07:18:35;;;;;;;15.83;14.17;;;26.00;93.70;;;;;;4931976;29;20191;-72
2023/05/22 07:21:01;;;;;;;13.80;12.60;;;26.50;92.40;;;;;;4947594;28;20234;-72
2023/05/22 07:23:27;;;;;;;13.37;12.23;;;29.10;88.50;;;;;;4946410;29;20267;-74
2023/05/22 07:25:52;;;;;;;14.93;13.53;;;31.20;79.10;;;;;;4947985;29;20454;-73
2023/05/22 07:28:18;;;;;;;13.50;12.40;;;31.60;74.10;;;;;;4946921;29;20197;-73
2023/05/22 07:30:44;;;;;;;14.40;13.20;;;32.50;70.70;;;;;;4930367;28;20355;-75
2023/05/22 07:33:10;;;;;;;14.50;13.10;;;34.10;64.00;;;;;;4946598;28;20189;-73
2023/05/22 07:35:36;;;;;;;12.80;11.67;;;34.60;59.80;;;;;;4946270;29;20222;-75
2023/05/22 07:38:02;;;;;;;14.03;12.77;;;33.80;60.50;;;;;;4948357;28;20463;-73
2023/05/22 07:40:28;;;;;;;13.20;12.00;;;33.20;61.20;;;;;;4949669;28;20790;-74
2023/05/22 07:42:54;;;;;;;12.27;11.27;;;34.00;59.70;;;;;;4945593;29;20547;-72
2023/05/22 07:45:19;;;;;;;13.30;12.27;;;34.30;58.90;;;;;;4945539;28;20271;-73
2023/05/22 07:47:45;;;;;;;12.10;11.10;;;34.70;57.60;;;;;;4931042;29;20236;-73
2023/05/22 07:50:11;;;;;;;14.50;13.00;;;34.00;57.50;;;;;;4948524;29;20185;-73
2023/05/22 07:52:36;;;;;;;13.43;12.13;;;35.40;57.50;;;;;;4930316;29;20296;-73
2023/05/22 07:55:02;;;;;;;13.60;12.50;;;35.70;55.20;;;;;;4929113;29;20219;-74
2023/05/22 07:57:28;;;;;;;13.57;12.50;;;34.40;55.80;;;;;;4926362;29;20205;-74
2023/05/22 07:59:54;;;;;;;13.37;12.10;;;33.40;57.30;;;;;;4945249;28;20182;-75
2023/05/22 08:02:21;;;;;;;13.37;12.10;;;33.10;58.70;;;;;;4948126;28;21008;-76
2023/05/22 08:04:47;;;;;;;15.43;13.83;;;32.60;58.80;;;;;;4947509;29;20527;-75
2023/05/22 08:07:12;;;;;;;14.30;12.80;;;32.10;59.50;;;;;;4946902;28;20534;-75
2023/05/22 08:09:38;;;;;;;13.60;12.53;;;30.60;63.20;;;;;;4946809;29;20659;-73
2023/05/22 08:12:05;;;;;;;12.90;11.70;;;29.50;66.70;;;;;;4933067;29;20204;-74
2023/05/22 08:14:31;;;;;;;14.30;12.80;;;29.20;69.50;;;;;;4948014;28;20518;-74
2023/05/22 08:16:57;;;;;;;14.93;13.53;;;29.30;69.20;;;;;;4945840;29;20451;-73
2023/05/22 08:19:23;;;;;;;14.23;12.83;;;28.50;71.80;;;;;;4948548;29;20211;-74
2023/05/22 08:21:51;;;;;;;13.83;12.57;;;28.40;72.30;;;;;;4929550;29;20584;-73
2023/05/22 08:24:17;;;;;;;13.80;12.70;;;28.30;73.30;;;;;;4929230;29;20968;-72
2023/05/22 08:26:43;;;;;;;15.43;14.03;;;27.80;75.00;;;;;;4947955;29;20455;-73
2023/05/22 08:29:08;;;;;;;13.03;11.90;;;27.60;76.20;;;;;;4931026;29;20202;-74
2023/05/22 08:31:34;;;;;;;14.07;12.67;;;27.70;76.50;;;;;;4947736;28;20240;-74
2023/05/22 08:34:01;;;;;;;13.27;12.17;;;27.60;77.40;;;;;;4930061;29;20216;-72
2023/05/22 08:36:29;;;;;;;14.97;13.20;;;27.50;78.00;;;;;;4946617;28;20190;-73
2023/05/22 08:38:55;;;;;;;13.50;11.97;;;27.20;78.10;;;;;;4930027;29;20452;-73
2023/05/22 08:41:20;;;;;;;11.73;10.73;;;26.40;80.40;;;;;;4945151;28;20830;-73
2023/05/22 08:43:47;;;;;;;13.13;12.00;;;26.90;82.50;;;;;;4948091;29;20474;-73
2023/05/22 08:46:15;;;;;;;13.67;12.30;;;26.60;82.10;;;;;;4929138;29;20196;-73
2023/05/22 08:48:41;;;;;;;12.83;11.67;;;26.40;82.30;;;;;;4933493;29;20452;-72
2023/05/22 08:51:07;;;;;;;13.03;11.83;;;25.90;85.60;;;;;;4948232;28;20488;-73
2023/05/22 08:53:37;;;;;;;11.97;10.93;;;25.80;88.50;;;;;;4934431;29;21094;-73
2023/05/22 08:56:07;;;;;;;11.67;10.67;;;25.90;89.30;;;;;;4948485;29;20483;-74
2023/05/22 08:58:35;;;;;;;12.63;11.53;;;25.80;89.70;;;;;;4932109;29;20548;-74
2023/05/22 09:01:03;;;;;;;12.60;11.60;;;25.90;90.00;;;;;;4929299;29;20460;-73
2023/05/22 09:03:33;;;;;;;11.53;10.33;;;26.00;90.00;;;;;;4951501;29;20465;-73
2023/05/22 09:05:59;;;;;;;12.50;11.30;;;26.20;88.50;;;;;;4930948;28;20448;-72
2023/05/22 09:08:26;;;;;;;12.07;10.97;;;26.70;87.00;;;;;;4933808;29;20453;-73
2023/05/22 09:10:53;;;;;;;12.83;11.80;;;27.30;84.80;;;;;;4934360;29;20467;-74
2023/05/22 09:13:31;;;;;;;12.97;11.87;;;27.80;82.60;;;;;;4951398;29;20542;-75
2023/05/22 09:16:11;;;;;;;12.80;11.77;;;29.20;80.20;;;;;;4949413;28;20481;-73
2023/05/22 09:18:37;;;;;;;13.27;12.17;;;30.60;72.80;;;;;;4933827;29;20447;-74
2023/05/22 09:21:04;;;;;;;13.63;12.37;;;30.80;70.20;;;;;;4951459;28;20468;-74
2023/05/22 09:23:29;;;;;;;12.17;11.17;;;31.60;67.80;;;;;;4951665;29;20821;-73
2023/05/22 09:25:57;;;;;;;12.43;11.43;;;33.30;63.60;;;;;;4948823;29;20456;-74
2023/05/22 09:28:24;;;;;;;12.30;11.30;;;34.30;59.20;;;;;;4949847;29;20273;-74
2023/05/22 09:30:51;;;;;;;12.67;11.37;;;35.50;57.00;;;;;;4950599;28;20981;-74
2023/05/22 09:33:21;;;;;;;13.60;12.50;;;35.50;55.50;;;;;;4951042;29;20452;-76
2023/05/22 09:35:47;;;;;;;13.37;12.20;;;34.60;56.20;;;;;;4931597;29;20484;-73
2023/05/22 09:38:13;;;;;;;12.13;11.23;;;35.00;55.80;;;;;;4949049;28;21135;-73
2023/05/22 09:40:39;;;;;;;13.43;12.27;;;37.20;53.10;;;;;;4935403;28;20448;-73
2023/05/22 09:43:09;;;;;;;11.77;10.87;;;36.60;52.20;;;;;;4931480;29;20444;-73
2023/05/22 09:45:36;;;;;;;13.23;12.17;;;37.20;52.00;;;;;;4949985;28;21032;-73
2023/05/22 09:48:05;;;;;;;14.53;13.43;;;36.30;52.30;;;;;;4948552;29;20455;-74
2023/05/22 09:50:31;;;;;;;12.60;11.30;;;36.60;51.50;;;;;;4930566;29;21037;-74
2023/05/22 09:53:01;;;;;;;11.70;10.80;;;36.20;50.60;;;;;;4931834;29;20540;-73
2023/05/22 09:55:27;;;;;;;12.23;11.23;;;36.50;50.60;;;;;;4946431;29;20468;-74
2023/05/22 09:57:54;;;;;;;12.33;11.37;;;36.80;50.80;;;;;;4931354;29;20816;-73
2023/05/22 10:00:22;;;;;;;13.40;12.10;;;37.60;49.80;;;;;;4946365;28;21042;-73
2023/05/22 10:02:52;;;;;;;13.10;11.73;;;37.90;49.30;;;;;;4946629;29;20448;-73
2023/05/22 10:05:22;;;;;;;11.77;10.63;;;37.40;48.60;;;;;;4928705;29;20444;-73
2023/05/22 10:07:55;;;;;;;12.50;11.50;;;38.20;48.10;;;;;;4926920;29;20995;-74
2023/05/22 10:10:23;;;;;;;12.20;11.10;;;38.00;47.20;;;;;;4948447;29;20793;-74
2023/05/22 10:12:54;;;;;;;13.23;12.17;;;37.70;48.20;;;;;;4931509;29;20456;-74
2023/05/22 10:15:21;;;;;;;12.07;10.90;;;37.60;48.60;;;;;;4944978;28;20792;-74
2023/05/22 10:17:48;;;;;;;12.20;11.30;;;36.30;49.70;;;;;;4928253;29;20451;-72
2023/05/22 10:20:14;;;;;;;13.93;12.63;;;34.70;51.90;;;;;;4948023;29;20499;-72
2023/05/22 10:22:40;;;;;;;11.50;10.50;;;33.60;53.60;;;;;;4947813;28;20470;-72
2023/05/22 10:25:07;;;;;;;14.57;13.27;;;32.30;55.70;;;;;;4948782;29;20964;-73
2023/05/22 10:27:32;;;;;;;12.00;11.00;;;31.40;57.90;;;;;;4946742;29;20530;-73
2023/05/22 10:30:09;;;;;;;12.77;11.53;;;31.00;59.80;;;;;;4928215;28;20561;-73
2023/05/22 10:32:59;;;;;;;12.67;11.50;;;30.70;61.50;;;;;;4944500;29;20765;-72
2023/05/22 10:35:48;;;;;;;12.40;11.33;;;30.30;62.10;;;;;;4925949;29;20558;-73
2023/05/22 10:38:23;;;;;;;12.60;11.50;;;30.00;63.80;;;;;;4944986;28;20440;-74
2023/05/22 10:40:50;;;;;;;13.13;12.03;;;29.80;64.80;;;;;;4947030;28;20475;-73
2023/05/22 10:43:16;;;;;;;15.27;13.90;;;29.60;65.30;;;;;;4925799;29;20457;-74
2023/05/22 10:45:45;;;;;;;12.87;11.50;;;29.70;65.00;;;;;;4943547;28;20507;-74
2023/05/22 10:48:11;;;;;;;13.07;11.87;;;29.50;65.70;;;;;;4930516;29;20204;-74
2023/05/22 10:50:38;;;;;;;12.73;11.73;;;29.10;67.40;;;;;;4928793;29;20853;-74
2023/05/22 10:53:24;;;;;;;13.27;12.00;;;28.90;67.40;;;;;;4947047;28;20463;-73
2023/05/22 10:55:55;;;;;;;14.17;12.97;;;29.00;68.70;;;;;;4932247;29;20493;-73
2023/05/22 10:58:25;;;;;;;12.53;11.53;;;28.70;69.50;;;;;;4942748;29;20455;-74
2023/05/22 11:01:17;;;;;;;12.00;11.10;;;29.30;68.50;;;;;;4948661;28;20476;-73
2023/05/22 11:03:59;;;;;;;12.87;11.73;;;30.40;66.70;;;;;;4946357;29;20440;-73
2023/05/22 11:06:44;;;;;;;12.50;11.50;;;31.20;61.50;;;;;;4944561;28;20456;-74
2023/05/22 11:09:42;;;;;;;11.67;10.77;;;32.60;58.20;;;;;;4947545;29;20480;-72
2023/05/22 11:12:16;;;;;;;12.17;11.10;;;33.10;56.20;;;;;;4923901;28;20476;-73
2023/05/22 11:15:04;;;;;;;11.63;10.73;;;34.00;55.40;;;;;;4929724;28;20477;-72
2023/05/22 11:17:31;;;;;;;12.53;11.40;;;33.80;55.10;;;;;;4929435;29;20445;-72
2023/05/22 11:20:04;;;;;;;13.07;11.87;;;33.80;55.40;;;;;;4948323;29;20491;-73
2023/05/22 11:22:36;;;;;;;12.17;11.17;;;34.40;54.30;;;;;;4929005;29;20510;-74
2023/05/22 11:25:10;;;;;;;11.97;11.00;;;34.20;55.00;;;;;;4943931;29;21008;-73
2023/05/22 11:27:38;;;;;;;11.93;11.07;;;33.90;55.10;;;;;;4944433;29;20456;-73
2023/05/22 11:30:04;;;;;;;12.53;11.30;;;34.50;54.10;;;;;;4929724;29;20543;-73
2023/05/22 11:32:29;;;;;;;11.90;10.90;;;35.30;53.50;;;;;;4926467;29;20531;-74
2023/05/22 11:34:56;;;;;;;11.80;10.90;;;35.90;51.90;;;;;;4930952;29;21021;-73
2023/05/22 11:37:22;;;;;;;12.07;11.10;;;35.10;52.20;;;;;;4946022;28;20279;-72
2023/05/22 11:40:05;;;;;;;11.03;10.13;;;35.30;52.40;;;;;;4948024;29;20448;-72
2023/05/22 11:42:31;;;;;;;11.63;10.73;;;34.70;52.70;;;;;;4930234;29;20470;-73
2023/05/22 11:44:57;;;;;;;11.33;10.23;;;34.40;52.90;;;;;;4947696;29;20448;-74
2023/05/22 11:47:25;;;;;;;12.07;11.07;;;34.00;53.70;;;;;;4947130;28;20575;-72
2023/05/22 11:49:52;;;;;;;10.60;9.70;;;33.70;54.10;;;;;;4945943;29;20212;-73
2023/05/22 11:52:18;;;;;;;10.60;9.80;;;32.80;55.30;;;;;;4946886;28;20515;-72
2023/05/22 11:54:46;;;;;;;10.90;10.10;;;32.40;55.50;;;;;;4946902;28;20519;-73
2023/05/22 11:57:13;;;;;;;11.33;10.33;;;32.20;55.30;;;;;;4929735;29;20449;-73
2023/05/22 11:59:39;;;;;;;10.10;9.30;;;31.60;56.30;;;;;;4930936;29;20718;-74
2023/05/22 12:02:06;;;;;;;10.63;9.70;;;31.20;57.20;;;;;;4941827;28;20474;-73
2023/05/22 12:04:32;;;;;;;11.70;10.80;;;30.80;57.70;;;;;;4942848;29;20606;-73
2023/05/22 12:06:58;;;;;;;11.80;10.87;;;30.20;58.90;;;;;;4942826;28;20547;-73
2023/05/22 12:09:25;;;;;;;10.57;9.77;;;30.10;58.90;;;;;;4928997;29;20543;-72
2023/05/22 12:11:55;;;;;;;10.60;9.70;;;30.00;58.70;;;;;;4929211;29;20247;-73
2023/05/22 12:14:30;;;;;;;10.43;9.63;;;29.90;58.30;;;;;;4930741;29;20479;-74
2023/05/22 12:17:03;;;;;;;10.77;9.97;;;29.60;59.30;;;;;;4945367;28;20455;-73
2023/05/22 12:19:28;;;;;;;11.03;10.03;;;29.20;60.40;;;;;;4931337;29;20443;-73
2023/05/22 12:21:54;;;;;;;12.57;11.57;;;29.00;62.70;;;;;;4942009;28;20469;-74
2023/05/22 12:24:22;;;;;;;11.60;10.60;;;29.00;62.80;;;;;;4927580;29;20278;-74
2023/05/22 12:26:55;;;;;;;10.30;9.53;;;29.00;62.20;;;;;;4951576;29;20213;-74
2023/05/22 12:29:24;;;;;;;10.63;9.77;;;29.00;60.20;;;;;;4933448;29;20451;-75
2023/05/22 12:31:50;;;;;;;11.50;10.63;;;29.10;60.60;;;;;;4930174;29;20472;-75